sensor_id;sensor_type;location;lat;lon;timestamp;pressure;altitude;pressure_sealevel;temperature;humidity
13312;BME280;34033;48.672;9.376;2022-07-15T00:02:05;98799.56;;;23.38;40.27
13312;BME280;34033;48.672;9.376;2022-07-15T00:04:31;98799.06;;;23.31;40.89
13312;BME280;34033;48.672;9.376;2022-07-15T00:06:56;98798.50;;;23.45;41.59
13312;BME280;34033;48.672;9.376;2022-07-15T00:09:22;98800.91;;;23.46;41.14
13312;BME280;34033;48.672;9.376;2022-07-15T00:12:07;98794.59;;;23.51;41.18
13312;BME280;34033;48.672;9.376;2022-07-15T00:14:33;98792.19;;;23.50;40.68
13312;BME280;34033;48.672;9.376;2022-07-15T00:16:58;98794.13;;;23.53;40.93
13312;BME280;34033;48.672;9.376;2022-07-15T00:19:23;98803.94;;;23.52;40.47
13312;BME280;34033;48.672;9.376;2022-07-15T00:21:49;98796.84;;;23.56;40.86
13312;BME280;34033;48.672;9.376;2022-07-15T00:24:14;98795.41;;;23.52;40.67
13312;BME280;34033;48.672;9.376;2022-07-15T00:26:41;98796.91;;;23.44;40.37
13312;BME280;34033;48.672;9.376;2022-07-15T00:29:06;98789.94;;;23.45;40.88
13312;BME280;34033;48.672;9.376;2022-07-15T00:31:32;98793.59;;;23.45;41.16
13312;BME280;34033;48.672;9.376;2022-07-15T00:33:58;98794.13;;;23.53;41.03
13312;BME280;34033;48.672;9.376;2022-07-15T00:36:23;98796.66;;;23.51;41.18
13312;BME280;34033;48.672;9.376;2022-07-15T00:38:48;98790.78;;;23.54;41.32
13312;BME280;34033;48.672;9.376;2022-07-15T00:41:14;98801.13;;;23.61;41.32
13312;BME280;34033;48.672;9.376;2022-07-15T00:43:39;98796.03;;;23.56;41.24
13312;BME280;34033;48.672;9.376;2022-07-15T00:46:05;98806.66;;;23.55;41.19
13312;BME280;34033;48.672;9.376;2022-07-15T00:48:31;98804.56;;;23.47;41.46
13312;BME280;34033;48.672;9.376;2022-07-15T00:50:56;98804.19;;;23.45;41.52
13312;BME280;34033;48.672;9.376;2022-07-15T00:53:21;98805.66;;;23.49;41.59
13312;BME280;34033;48.672;9.376;2022-07-15T00:55:47;98805.66;;;23.49;41.60
13312;BME280;34033;48.672;9.376;2022-07-15T00:58:20;98810.84;;;23.42;41.67
13312;BME280;34033;48.672;9.376;2022-07-15T01:00:48;98811.25;;;23.53;41.69
13312;BME280;34033;48.672;9.376;2022-07-15T01:03:15;98802.69;;;23.53;41.60
13312;BME280;34033;48.672;9.376;2022-07-15T01:05:41;98817.09;;;23.49;41.67
13312;BME280;34033;48.672;9.376;2022-07-15T01:08:07;98819.72;;;23.44;41.69
13312;BME280;34033;48.672;9.376;2022-07-15T01:10:34;98814.25;;;23.27;41.98
13312;BME280;34033;48.672;9.376;2022-07-15T01:13:00;98816.72;;;23.16;42.44
13312;BME280;34033;48.672;9.376;2022-07-15T01:15:28;98815.47;;;23.17;42.50
13312;BME280;34033;48.672;9.376;2022-07-15T01:17:56;98815.63;;;23.14;42.62
13312;BME280;34033;48.672;9.376;2022-07-15T01:20:21;98811.19;;;23.13;42.75
13312;BME280;34033;48.672;9.376;2022-07-15T01:22:47;98813.56;;;23.14;42.51
13312;BME280;34033;48.672;9.376;2022-07-15T01:25:13;98818.75;;;23.07;42.72
13312;BME280;34033;48.672;9.376;2022-07-15T01:27:39;98831.88;;;23.04;42.98
13312;BME280;34033;48.672;9.376;2022-07-15T01:30:05;98822.19;;;23.02;43.01
13312;BME280;34033;48.672;9.376;2022-07-15T01:32:31;98831.28;;;23.09;42.82
13312;BME280;34033;48.672;9.376;2022-07-15T01:34:56;98827.50;;;23.12;42.84
13312;BME280;34033;48.672;9.376;2022-07-15T01:37:22;98826.84;;;23.08;42.87
13312;BME280;34033;48.672;9.376;2022-07-15T01:39:47;98833.78;;;23.07;43.07
13312;BME280;34033;48.672;9.376;2022-07-15T01:42:12;98827.44;;;23.03;43.32
13312;BME280;34033;48.672;9.376;2022-07-15T01:44:38;98833.41;;;22.96;43.49
13312;BME280;34033;48.672;9.376;2022-07-15T01:47:03;98832.75;;;22.92;43.52
13312;BME280;34033;48.672;9.376;2022-07-15T01:49:29;98832.59;;;22.96;43.69
13312;BME280;34033;48.672;9.376;2022-07-15T01:51:58;98831.63;;;22.90;43.83
13312;BME280;34033;48.672;9.376;2022-07-15T01:54:25;98834.47;;;22.90;43.98
13312;BME280;34033;48.672;9.376;2022-07-15T01:56:52;98837.13;;;22.84;43.94
13312;BME280;34033;48.672;9.376;2022-07-15T01:59:19;98833.47;;;22.83;43.87
13312;BME280;34033;48.672;9.376;2022-07-15T02:01:48;98829.50;;;22.81;43.89
13312;BME280;34033;48.672;9.376;2022-07-15T02:04:14;98831.22;;;22.78;44.06
13312;BME280;34033;48.672;9.376;2022-07-15T02:06:40;98831.09;;;22.82;44.21
13312;BME280;34033;48.672;9.376;2022-07-15T02:09:06;98823.72;;;22.72;44.29
13312;BME280;34033;48.672;9.376;2022-07-15T02:11:31;98828.78;;;22.55;44.91
13312;BME280;34033;48.672;9.376;2022-07-15T02:13:57;98832.81;;;22.45;45.22
13312;BME280;34033;48.672;9.376;2022-07-15T02:16:31;98822.31;;;22.55;45.18
13312;BME280;34033;48.672;9.376;2022-07-15T02:18:56;98826.03;;;22.64;45.04
13312;BME280;34033;48.672;9.376;2022-07-15T02:21:22;98826.03;;;22.64;45.22
13312;BME280;34033;48.672;9.376;2022-07-15T02:23:48;98827.47;;;22.69;45.17
13312;BME280;34033;48.672;9.376;2022-07-15T02:26:14;98821.38;;;22.58;45.20
13312;BME280;34033;48.672;9.376;2022-07-15T02:28:39;98821.81;;;22.56;45.37
13312;BME280;34033;48.672;9.376;2022-07-15T02:31:05;98832.56;;;22.52;45.43
13312;BME280;34033;48.672;9.376;2022-07-15T02:33:31;98833.81;;;22.51;45.42
13312;BME280;34033;48.672;9.376;2022-07-15T02:35:56;98829.38;;;22.50;45.60
13312;BME280;34033;48.672;9.376;2022-07-15T02:38:22;98828.03;;;22.42;45.78
13312;BME280;34033;48.672;9.376;2022-07-15T02:40:48;98830.34;;;22.34;46.18
13312;BME280;34033;48.672;9.376;2022-07-15T02:43:14;98825.91;;;22.33;46.14
13312;BME280;34033;48.672;9.376;2022-07-15T02:45:39;98822.63;;;22.22;46.18
13312;BME280;34033;48.672;9.376;2022-07-15T02:48:06;98826.03;;;22.30;46.17
13312;BME280;34033;48.672;9.376;2022-07-15T02:50:31;98826.25;;;22.35;46.16
13312;BME280;34033;48.672;9.376;2022-07-15T02:52:57;98826.09;;;22.39;46.11
13312;BME280;34033;48.672;9.376;2022-07-15T02:55:22;98835.00;;;22.41;45.66
13312;BME280;34033;48.672;9.376;2022-07-15T02:57:48;98829.44;;;22.37;46.01
13312;BME280;34033;48.672;9.376;2022-07-15T03:00:15;98829.84;;;22.49;45.95
13312;BME280;34033;48.672;9.376;2022-07-15T03:02:45;98832.28;;;22.37;46.00
13312;BME280;34033;48.672;9.376;2022-07-15T03:05:10;98842.66;;;22.31;45.81
13312;BME280;34033;48.672;9.376;2022-07-15T03:07:40;98845.41;;;22.22;45.90
13312;BME280;34033;48.672;9.376;2022-07-15T03:10:07;98843.28;;;22.14;46.03
13312;BME280;34033;48.672;9.376;2022-07-15T03:12:33;98845.69;;;22.02;46.23
13312;BME280;34033;48.672;9.376;2022-07-15T03:14:59;98842.06;;;21.77;46.50
13312;BME280;34033;48.672;9.376;2022-07-15T03:17:25;98843.53;;;21.69;47.02
13312;BME280;34033;48.672;9.376;2022-07-15T03:19:50;98844.66;;;21.58;47.34
13312;BME280;34033;48.672;9.376;2022-07-15T03:22:15;98844.34;;;21.44;47.65
13312;BME280;34033;48.672;9.376;2022-07-15T03:24:41;98849.16;;;21.18;48.34
13312;BME280;34033;48.672;9.376;2022-07-15T03:27:07;98844.94;;;21.10;48.39
13312;BME280;34033;48.672;9.376;2022-07-15T03:29:33;98845.53;;;21.17;48.46
13312;BME280;34033;48.672;9.376;2022-07-15T03:31:59;98842.25;;;21.32;48.24
13312;BME280;34033;48.672;9.376;2022-07-15T03:34:24;98854.13;;;21.55;48.01
13312;BME280;34033;48.672;9.376;2022-07-15T03:36:53;98848.78;;;21.70;47.94
13312;BME280;34033;48.672;9.376;2022-07-15T03:39:20;98852.06;;;21.81;47.48
13312;BME280;34033;48.672;9.376;2022-07-15T03:41:45;98857.06;;;21.90;47.13
13312;BME280;34033;48.672;9.376;2022-07-15T03:44:12;98851.25;;;21.93;46.75
13312;BME280;34033;48.672;9.376;2022-07-15T03:46:39;98849.66;;;21.92;46.78
13312;BME280;34033;48.672;9.376;2022-07-15T03:49:04;98852.06;;;21.94;46.24
13312;BME280;34033;48.672;9.376;2022-07-15T03:51:29;98852.50;;;21.80;46.71
13312;BME280;34033;48.672;9.376;2022-07-15T03:54:00;98854.22;;;21.64;46.75
13312;BME280;34033;48.672;9.376;2022-07-15T03:56:27;98853.53;;;21.35;47.28
13312;BME280;34033;48.672;9.376;2022-07-15T03:58:52;98853.53;;;21.23;47.34
13312;BME280;34033;48.672;9.376;2022-07-15T04:01:18;98858.19;;;21.29;47.47
13312;BME280;34033;48.672;9.376;2022-07-15T04:03:44;98852.00;;;21.18;47.12
13312;BME280;34033;48.672;9.376;2022-07-15T04:06:09;98852.53;;;21.00;47.90
13312;BME280;34033;48.672;9.376;2022-07-15T04:08:34;98853.53;;;20.94;48.01
13312;BME280;34033;48.672;9.376;2022-07-15T04:11:00;98856.47;;;20.90;48.37
13312;BME280;34033;48.672;9.376;2022-07-15T04:13:25;98863.09;;;21.00;48.15
13312;BME280;34033;48.672;9.376;2022-07-15T04:15:51;98862.16;;;20.90;48.55
13312;BME280;34033;48.672;9.376;2022-07-15T04:18:17;98863.41;;;20.89;48.36
13312;BME280;34033;48.672;9.376;2022-07-15T04:20:42;98874.22;;;20.65;49.09
13312;BME280;34033;48.672;9.376;2022-07-15T04:23:07;98874.34;;;20.29;50.18
13312;BME280;34033;48.672;9.376;2022-07-15T04:25:33;98877.84;;;20.05;50.93
13312;BME280;34033;48.672;9.376;2022-07-15T04:27:58;98871.78;;;19.86;52.00
13312;BME280;34033;48.672;9.376;2022-07-15T04:30:24;98874.63;;;19.70;52.68
13312;BME280;34033;48.672;9.376;2022-07-15T04:32:49;98872.94;;;19.56;52.99
13312;BME280;34033;48.672;9.376;2022-07-15T04:35:16;98880.44;;;19.47;53.49
13312;BME280;34033;48.672;9.376;2022-07-15T04:37:41;98874.53;;;19.38;53.52
13312;BME280;34033;48.672;9.376;2022-07-15T04:40:07;98869.91;;;19.28;54.00
13312;BME280;34033;48.672;9.376;2022-07-15T04:42:34;98867.94;;;19.25;54.17
13312;BME280;34033;48.672;9.376;2022-07-15T04:45:00;98867.94;;;19.25;54.33
13312;BME280;34033;48.672;9.376;2022-07-15T04:47:26;98874.41;;;19.25;54.61
13312;BME280;34033;48.672;9.376;2022-07-15T04:49:51;98871.13;;;19.27;54.75
13312;BME280;34033;48.672;9.376;2022-07-15T04:52:35;98880.72;;;19.33;54.40
13312;BME280;34033;48.672;9.376;2022-07-15T04:55:00;98877.81;;;19.36;54.17
13312;BME280;34033;48.672;9.376;2022-07-15T04:57:25;98874.91;;;19.40;54.42
13312;BME280;34033;48.672;9.376;2022-07-15T04:59:51;98874.16;;;19.36;54.59
13312;BME280;34033;48.672;9.376;2022-07-15T05:02:16;98876.13;;;19.39;54.67
13312;BME280;34033;48.672;9.376;2022-07-15T05:04:42;98883.41;;;19.40;54.59
13312;BME280;34033;48.672;9.376;2022-07-15T05:07:07;98880.91;;;19.42;54.95
13312;BME280;34033;48.672;9.376;2022-07-15T05:09:33;98878.44;;;19.44;55.23
13312;BME280;34033;48.672;9.376;2022-07-15T05:11:59;98881.69;;;19.46;55.37
13312;BME280;34033;48.672;9.376;2022-07-15T05:14:24;98886.47;;;19.49;55.28
13312;BME280;34033;48.672;9.376;2022-07-15T05:16:50;98885.56;;;19.52;55.21
13312;BME280;34033;48.672;9.376;2022-07-15T05:19:16;98883.53;;;19.52;55.31
13312;BME280;34033;48.672;9.376;2022-07-15T05:21:41;98886.31;;;19.56;55.17
13312;BME280;34033;48.672;9.376;2022-07-15T05:24:06;98889.59;;;19.54;55.23
13312;BME280;34033;48.672;9.376;2022-07-15T05:26:32;98881.97;;;19.51;55.52
13312;BME280;34033;48.672;9.376;2022-07-15T05:28:59;98879.56;;;19.50;55.64
13312;BME280;34033;48.672;9.376;2022-07-15T05:31:24;98888.94;;;19.47;55.52
13312;BME280;34033;48.672;9.376;2022-07-15T05:33:49;98886.84;;;19.51;55.79
13312;BME280;34033;48.672;9.376;2022-07-15T05:36:17;98892.00;;;19.56;55.74
13312;BME280;34033;48.672;9.376;2022-07-15T05:38:44;98894.28;;;19.61;55.28
13312;BME280;34033;48.672;9.376;2022-07-15T05:41:09;98893.25;;;19.71;55.02
13312;BME280;34033;48.672;9.376;2022-07-15T05:43:35;98890.84;;;19.70;54.95
13312;BME280;34033;48.672;9.376;2022-07-15T05:46:01;98893.75;;;19.50;54.85
13312;BME280;34033;48.672;9.376;2022-07-15T05:48:26;98891.19;;;19.55;54.92
13312;BME280;34033;48.672;9.376;2022-07-15T05:50:52;98900.03;;;19.57;54.72
13312;BME280;34033;48.672;9.376;2022-07-15T05:53:17;98901.47;;;19.66;53.81
13312;BME280;34033;48.672;9.376;2022-07-15T05:55:42;98909.19;;;19.65;53.66
13312;BME280;34033;48.672;9.376;2022-07-15T05:58:08;98897.41;;;19.67;53.92
13312;BME280;34033;48.672;9.376;2022-07-15T06:00:34;98901.38;;;19.69;54.04
13312;BME280;34033;48.672;9.376;2022-07-15T06:02:59;98904.59;;;19.71;53.82
13312;BME280;34033;48.672;9.376;2022-07-15T06:05:26;98904.59;;;19.71;53.76
13312;BME280;34033;48.672;9.376;2022-07-15T06:07:51;98912.94;;;19.78;53.97
13312;BME280;34033;48.672;9.376;2022-07-15T06:10:16;98909.13;;;19.85;53.95
13312;BME280;34033;48.672;9.376;2022-07-15T06:12:42;98916.75;;;19.88;53.91
13312;BME280;34033;48.672;9.376;2022-07-15T06:15:08;98908.50;;;19.93;53.49
13312;BME280;34033;48.672;9.376;2022-07-15T06:17:34;98909.16;;;20.01;53.10
13312;BME280;34033;48.672;9.376;2022-07-15T06:19:59;98911.78;;;20.08;53.01
13312;BME280;34033;48.672;9.376;2022-07-15T06:22:25;98904.44;;;20.11;53.01
13312;BME280;34033;48.672;9.376;2022-07-15T06:24:51;98908.34;;;20.17;52.71
13312;BME280;34033;48.672;9.376;2022-07-15T06:27:16;98908.94;;;20.24;51.85
13312;BME280;34033;48.672;9.376;2022-07-15T06:29:41;98908.09;;;20.27;52.23
13312;BME280;34033;48.672;9.376;2022-07-15T06:32:07;98904.34;;;20.30;51.36
13312;BME280;34033;48.672;9.376;2022-07-15T06:34:33;98911.22;;;20.33;51.85
13312;BME280;34033;48.672;9.376;2022-07-15T06:36:58;98900.91;;;20.39;50.86
13312;BME280;34033;48.672;9.376;2022-07-15T06:39:24;98906.38;;;20.46;50.39
13312;BME280;34033;48.672;9.376;2022-07-15T06:41:49;98903.81;;;20.52;50.92
13312;BME280;34033;48.672;9.376;2022-07-15T06:44:15;98897.50;;;20.60;50.38
13312;BME280;34033;48.672;9.376;2022-07-15T06:46:41;98895.59;;;20.70;49.33
13312;BME280;34033;48.672;9.376;2022-07-15T06:49:06;98891.88;;;20.73;48.63
13312;BME280;34033;48.672;9.376;2022-07-15T06:51:31;98885.28;;;20.76;47.84
13312;BME280;34033;48.672;9.376;2022-07-15T06:53:57;98891.66;;;20.80;47.95
13312;BME280;34033;48.672;9.376;2022-07-15T06:56:22;98889.00;;;20.89;47.21
13312;BME280;34033;48.672;9.376;2022-07-15T06:58:47;98886.03;;;20.93;46.39
13312;BME280;34033;48.672;9.376;2022-07-15T07:01:13;98893.56;;;20.99;47.12
13312;BME280;34033;48.672;9.376;2022-07-15T07:03:38;98875.53;;;21.06;46.60
13312;BME280;34033;48.672;9.376;2022-07-15T07:06:03;98879.31;;;21.28;48.26
13312;BME280;34033;48.672;9.376;2022-07-15T07:08:31;98885.97;;;21.50;45.64
13312;BME280;34033;48.672;9.376;2022-07-15T07:10:56;98876.41;;;21.70;45.93
13312;BME280;34033;48.672;9.376;2022-07-15T07:13:21;98885.53;;;21.77;46.34
13312;BME280;34033;48.672;9.376;2022-07-15T07:15:48;98886.19;;;21.43;45.57
13312;BME280;34033;48.672;9.376;2022-07-15T07:18:13;98869.34;;;21.61;45.76
13312;BME280;34033;48.672;9.376;2022-07-15T07:20:39;98880.41;;;21.72;45.39
13312;BME280;34033;48.672;9.376;2022-07-15T07:23:08;98879.50;;;21.75;44.78
13312;BME280;34033;48.672;9.376;2022-07-15T07:25:33;98885.88;;;21.92;46.57
13312;BME280;34033;48.672;9.376;2022-07-15T07:27:59;98875.38;;;21.89;45.28
13312;BME280;34033;48.672;9.376;2022-07-15T07:30:29;98873.13;;;22.09;45.70
13312;BME280;34033;48.672;9.376;2022-07-15T07:32:54;98878.81;;;22.09;43.33
13312;BME280;34033;48.672;9.376;2022-07-15T07:35:19;98876.66;;;22.13;44.16
13312;BME280;34033;48.672;9.376;2022-07-15T07:37:45;98869.09;;;22.32;44.18
13312;BME280;34033;48.672;9.376;2022-07-15T07:40:10;98874.75;;;22.44;43.64
13312;BME280;34033;48.672;9.376;2022-07-15T07:42:36;98875.75;;;22.51;42.12
13312;BME280;34033;48.672;9.376;2022-07-15T07:45:02;98873.81;;;22.60;43.70
13312;BME280;34033;48.672;9.376;2022-07-15T07:47:27;98867.81;;;22.80;42.58
13312;BME280;34033;48.672;9.376;2022-07-15T07:49:53;98872.31;;;22.90;42.40
13312;BME280;34033;48.672;9.376;2022-07-15T07:52:18;98868.41;;;22.75;38.99
13312;BME280;34033;48.672;9.376;2022-07-15T07:54:43;98874.50;;;22.86;41.11
13312;BME280;34033;48.672;9.376;2022-07-15T07:57:10;98867.97;;;22.98;40.07
13312;BME280;34033;48.672;9.376;2022-07-15T07:59:35;98863.72;;;23.03;39.07
13312;BME280;34033;48.672;9.376;2022-07-15T08:02:01;98874.19;;;23.06;38.29
13312;BME280;34033;48.672;9.376;2022-07-15T08:04:29;98872.78;;;23.10;40.09
13312;BME280;34033;48.672;9.376;2022-07-15T08:06:54;98867.16;;;23.19;39.50
13312;BME280;34033;48.672;9.376;2022-07-15T08:09:20;98871.69;;;23.39;39.20
13312;BME280;34033;48.672;9.376;2022-07-15T08:11:45;98867.66;;;23.27;38.06
13312;BME280;34033;48.672;9.376;2022-07-15T08:14:11;98858.09;;;23.43;37.96
13312;BME280;34033;48.672;9.376;2022-07-15T08:16:36;98870.84;;;23.51;37.07
13312;BME280;34033;48.672;9.376;2022-07-15T08:19:02;98856.41;;;23.23;36.93
13312;BME280;34033;48.672;9.376;2022-07-15T08:21:27;98862.75;;;22.84;35.84
13312;BME280;34033;48.672;9.376;2022-07-15T08:23:53;98861.97;;;23.05;37.88
13312;BME280;34033;48.672;9.376;2022-07-15T08:26:20;98861.03;;;23.30;37.69
13312;BME280;34033;48.672;9.376;2022-07-15T08:28:49;98858.31;;;23.26;37.55
13312;BME280;34033;48.672;9.376;2022-07-15T08:31:15;98853.88;;;23.47;37.79
13312;BME280;34033;48.672;9.376;2022-07-15T08:33:40;98852.28;;;23.46;35.54
13312;BME280;34033;48.672;9.376;2022-07-15T08:36:05;98861.56;;;23.16;35.97
13312;BME280;34033;48.672;9.376;2022-07-15T08:38:31;98852.03;;;23.32;37.47
13312;BME280;34033;48.672;9.376;2022-07-15T08:40:56;98854.56;;;23.39;36.48
13312;BME280;34033;48.672;9.376;2022-07-15T08:43:22;98853.59;;;23.33;34.44
13312;BME280;34033;48.672;9.376;2022-07-15T08:45:48;98854.72;;;23.66;36.30
13312;BME280;34033;48.672;9.376;2022-07-15T08:48:14;98843.69;;;23.77;35.09
13312;BME280;34033;48.672;9.376;2022-07-15T08:50:41;98848.47;;;23.80;34.33
13312;BME280;34033;48.672;9.376;2022-07-15T08:53:06;98845.44;;;23.75;34.14
13312;BME280;34033;48.672;9.376;2022-07-15T08:55:32;98842.94;;;23.55;34.21
13312;BME280;34033;48.672;9.376;2022-07-15T08:57:58;98844.50;;;23.47;34.73
13312;BME280;34033;48.672;9.376;2022-07-15T09:00:25;98838.56;;;23.63;35.02
13312;BME280;34033;48.672;9.376;2022-07-15T09:02:58;98846.59;;;23.86;34.85
13312;BME280;34033;48.672;9.376;2022-07-15T09:05:32;98837.75;;;24.02;34.35
13312;BME280;34033;48.672;9.376;2022-07-15T09:08:11;98844.81;;;24.20;34.88
13312;BME280;34033;48.672;9.376;2022-07-15T09:10:47;98838.09;;;24.14;33.61
13312;BME280;34033;48.672;9.376;2022-07-15T09:13:39;98840.00;;;24.17;34.90
13312;BME280;34033;48.672;9.376;2022-07-15T09:18:36;98841.63;;;24.27;33.66
13312;BME280;34033;48.672;9.376;2022-07-15T09:21:02;98842.75;;;24.38;34.37
13312;BME280;34033;48.672;9.376;2022-07-15T09:23:29;98841.69;;;23.96;33.76
13312;BME280;34033;48.672;9.376;2022-07-15T09:28:43;98842.31;;;23.91;33.44
13312;BME280;34033;48.672;9.376;2022-07-15T09:31:10;98851.34;;;23.98;33.74
13312;BME280;34033;48.672;9.376;2022-07-15T09:34:01;98846.50;;;24.17;33.29
13312;BME280;34033;48.672;9.376;2022-07-15T09:36:31;98847.38;;;24.45;34.34
13312;BME280;34033;48.672;9.376;2022-07-15T09:41:34;98843.91;;;24.86;32.49
13312;BME280;34033;48.672;9.376;2022-07-15T09:44:05;98858.50;;;24.98;32.37
13312;BME280;34033;48.672;9.376;2022-07-15T09:46:44;98845.00;;;25.07;32.93
13312;BME280;34033;48.672;9.376;2022-07-15T09:49:12;98854.34;;;25.26;33.19
13312;BME280;34033;48.672;9.376;2022-07-15T09:51:52;98852.03;;;25.48;31.98
13312;BME280;34033;48.672;9.376;2022-07-15T09:54:27;98850.13;;;25.63;32.20
13312;BME280;34033;48.672;9.376;2022-07-15T09:57:00;98854.84;;;25.75;31.74
13312;BME280;34033;48.672;9.376;2022-07-15T09:59:26;98846.50;;;25.87;31.67
13312;BME280;34033;48.672;9.376;2022-07-15T10:01:52;98851.84;;;26.03;31.71
13312;BME280;34033;48.672;9.376;2022-07-15T10:04:20;98847.59;;;26.22;31.55
13312;BME280;34033;48.672;9.376;2022-07-15T10:06:48;98857.09;;;26.37;31.22
13312;BME280;34033;48.672;9.376;2022-07-15T10:09:14;98847.75;;;26.51;31.47
13312;BME280;34033;48.672;9.376;2022-07-15T10:11:48;98847.38;;;26.58;31.45
13312;BME280;34033;48.672;9.376;2022-07-15T10:20:55;98844.59;;;26.26;31.84
13312;BME280;34033;48.672;9.376;2022-07-15T10:26:50;98854.81;;;25.85;32.94
13312;BME280;34033;48.672;9.376;2022-07-15T10:29:21;98839.34;;;25.91;32.37
13312;BME280;34033;48.672;9.376;2022-07-15T10:31:56;98841.97;;;26.04;32.20
13312;BME280;34033;48.672;9.376;2022-07-15T10:34:22;98834.44;;;26.15;31.88
13312;BME280;34033;48.672;9.376;2022-07-15T10:39:16;98832.78;;;25.67;33.01
13312;BME280;34033;48.672;9.376;2022-07-15T10:41:52;98825.81;;;25.92;33.03
13312;BME280;34033;48.672;9.376;2022-07-15T10:44:18;98815.81;;;26.44;34.75
13312;BME280;34033;48.672;9.376;2022-07-15T10:46:44;98817.53;;;26.89;33.71
13312;BME280;34033;48.672;9.376;2022-07-15T10:54:07;98802.47;;;29.29;33.52
13312;BME280;34033;48.672;9.376;2022-07-15T10:56:45;98798.44;;;30.10;27.63
13312;BME280;34033;48.672;9.376;2022-07-15T10:59:18;98794.38;;;30.44;26.79
13312;BME280;34033;48.672;9.376;2022-07-15T11:04:33;98790.84;;;30.18;27.33
13312;BME280;34033;48.672;9.376;2022-07-15T11:09:50;98779.75;;;30.00;27.94
13312;BME280;34033;48.672;9.376;2022-07-15T11:15:20;98757.63;;;29.85;27.81
13312;BME280;34033;48.672;9.376;2022-07-15T11:17:51;98773.00;;;29.71;27.20
13312;BME280;34033;48.672;9.376;2022-07-15T11:20:19;98769.06;;;29.74;27.88
13312;BME280;34033;48.672;9.376;2022-07-15T11:22:47;98772.16;;;29.34;27.81
13312;BME280;34033;48.672;9.376;2022-07-15T11:25:54;98770.31;;;28.59;27.99
13312;BME280;34033;48.672;9.376;2022-07-15T11:28:19;98765.09;;;28.37;28.58
13312;BME280;34033;48.672;9.376;2022-07-15T11:30:48;98758.19;;;28.49;29.50
13312;BME280;34033;48.672;9.376;2022-07-15T11:33:19;98763.56;;;28.42;29.77
13312;BME280;34033;48.672;9.376;2022-07-15T11:35:55;98766.88;;;28.14;29.19
13312;BME280;34033;48.672;9.376;2022-07-15T11:38:23;98759.13;;;28.20;29.96
13312;BME280;34033;48.672;9.376;2022-07-15T11:40:55;98770.84;;;28.37;30.10
13312;BME280;34033;48.672;9.376;2022-07-15T11:43:40;98765.94;;;28.23;28.89
13312;BME280;34033;48.672;9.376;2022-07-15T11:46:26;98762.31;;;28.23;29.97
13312;BME280;34033;48.672;9.376;2022-07-15T11:48:51;98768.50;;;27.66;29.13
13312;BME280;34033;48.672;9.376;2022-07-15T11:51:26;98774.75;;;27.35;29.42
13312;BME280;34033;48.672;9.376;2022-07-15T11:53:53;98766.84;;;27.30;29.78
13312;BME280;34033;48.672;9.376;2022-07-15T11:56:19;98759.34;;;27.32;30.30
13312;BME280;34033;48.672;9.376;2022-07-15T11:58:49;98758.06;;;27.33;29.92
13312;BME280;34033;48.672;9.376;2022-07-15T12:01:17;98752.41;;;27.54;30.25
13312;BME280;34033;48.672;9.376;2022-07-15T12:03:44;98759.25;;;27.56;29.68
13312;BME280;34033;48.672;9.376;2022-07-15T12:06:17;98753.41;;;27.51;29.75
13312;BME280;34033;48.672;9.376;2022-07-15T12:08:54;98746.78;;;27.79;29.21
13312;BME280;34033;48.672;9.376;2022-07-15T12:13:51;98749.69;;;28.60;28.26
13312;BME280;34033;48.672;9.376;2022-07-15T12:16:40;98741.03;;;28.81;28.35
13312;BME280;34033;48.672;9.376;2022-07-15T12:19:14;98742.97;;;28.69;28.40
13312;BME280;34033;48.672;9.376;2022-07-15T12:21:41;98744.19;;;28.83;27.81
13312;BME280;34033;48.672;9.376;2022-07-15T12:24:15;98725.72;;;28.95;27.62
13312;BME280;34033;48.672;9.376;2022-07-15T12:29:20;98743.19;;;29.17;27.72
13312;BME280;34033;48.672;9.376;2022-07-15T12:31:54;98747.75;;;28.98;27.38
13312;BME280;34033;48.672;9.376;2022-07-15T12:34:20;98742.41;;;29.17;28.09
13312;BME280;34033;48.672;9.376;2022-07-15T12:36:57;98746.63;;;29.47;27.57
13312;BME280;34033;48.672;9.376;2022-07-15T12:39:23;98744.19;;;29.71;26.82
13312;BME280;34033;48.672;9.376;2022-07-15T12:42:02;98754.81;;;29.91;26.74
13312;BME280;34033;48.672;9.376;2022-07-15T12:44:28;98746.75;;;30.06;26.48
13312;BME280;34033;48.672;9.376;2022-07-15T12:49:48;98744.91;;;30.57;26.01
13312;BME280;34033;48.672;9.376;2022-07-15T12:52:16;98744.19;;;30.90;25.30
13312;BME280;34033;48.672;9.376;2022-07-15T12:54:41;98741.84;;;30.99;25.20
13312;BME280;34033;48.672;9.376;2022-07-15T13:00:23;98749.06;;;29.97;26.37
13312;BME280;34033;48.672;9.376;2022-07-15T13:05:34;98747.56;;;29.07;27.78
13312;BME280;34033;48.672;9.376;2022-07-15T13:08:03;98745.16;;;28.54;28.25
13312;BME280;34033;48.672;9.376;2022-07-15T13:10:29;98744.59;;;28.30;28.36
13312;BME280;34033;48.672;9.376;2022-07-15T13:12:55;98739.50;;;28.85;28.22
13312;BME280;34033;48.672;9.376;2022-07-15T13:15:20;98732.97;;;29.11;29.04
13312;BME280;34033;48.672;9.376;2022-07-15T13:17:46;98736.91;;;28.87;27.98
13312;BME280;34033;48.672;9.376;2022-07-15T13:20:11;98727.56;;;29.55;28.42
13312;BME280;34033;48.672;9.376;2022-07-15T13:22:38;98721.28;;;29.57;27.13
13312;BME280;34033;48.672;9.376;2022-07-15T13:25:04;98729.13;;;29.56;27.28
13312;BME280;34033;48.672;9.376;2022-07-15T13:27:29;98722.63;;;29.61;27.86
13312;BME280;34033;48.672;9.376;2022-07-15T13:29:55;98726.16;;;29.45;27.34
13312;BME280;34033;48.672;9.376;2022-07-15T13:32:20;98718.53;;;29.36;28.23
13312;BME280;34033;48.672;9.376;2022-07-15T13:34:45;98724.63;;;29.18;28.41
13312;BME280;34033;48.672;9.376;2022-07-15T13:37:11;98721.72;;;28.41;28.93
13312;BME280;34033;48.672;9.376;2022-07-15T13:39:36;98724.50;;;28.76;28.06
13312;BME280;34033;48.672;9.376;2022-07-15T13:42:01;98718.97;;;28.98;28.70
13312;BME280;34033;48.672;9.376;2022-07-15T13:44:27;98721.34;;;28.74;28.95
13312;BME280;34033;48.672;9.376;2022-07-15T13:46:52;98722.91;;;28.75;28.40
13312;BME280;34033;48.672;9.376;2022-07-15T13:49:17;98724.47;;;29.01;28.26